Αρχική σελίδα
METAR-TAF:

METAR-TAF

Αεροδρόμια :

Βαγδάτη, Ιράκ

γεωγραφικό πλάτος: 33-15-45N, γεωγραφικό μήκος: 44-14-04E, υψόμετρο: 35 μ

Παρών καιρός

Η αναφορά έγινε 23 λεπτά πριν, στις 17:00 UTC
Άνεμος 8 kt από Δ/BΔ
Θερμοκρασία 35°C
Υγρασία 19%
Πίεση 1003 hPa
Ορατότητα 10 χλμ και άνω
Δεν υπάρχουν νέφη με βάση κάτω από τα 1500 μ. και δεν υπάρχουν νέφη σωρειτομελανίτες.

METAR: ORBI 181700Z 29008KT CAVOK 35/08 Q1003 NOSIG

Χρόνος: 20:23 (17:23 UTC)

Πρόγνωση Καιρού

Η αναφορά έγινε 7 ώρες και 23 λεπτά πριν, στις 10:00 UTC
Η πρόγνωση ισχύει από τις 18 στις 12 UTC έως τις 19 στις 12 UTC
Άνεμος 14 kt από
Ορατότητα 10 χλμ και άνω
Δεν υπάρχουν νέφη με βάση κάτω από τα 1500 μ. και δεν υπάρχουν νέφη σωρειτομελανίτες.

TAF: ORBI 181000Z 1812/1912 32014KT CAVOK

Μετεωρολογικές αναφορές και προγνώσεις για περισσότερα από 4000 αεροδρόμια (δελτία METAR και TAF).

Οι διαθέσιμοι σταθμοί απεικονίζονται στο χάρτη με κίτρινες και κόκκινες κουκκίδες.

Μετακινήστε το ποντίκι πάνω από τις κουκκίδες για να δείτε το όνομα του σταθμού.

Στη συνέχεια, κάντε κλικ για να δείτε τις μετεωρολογικές αναφορές και τις προγνώσεις καιρού.

Για να αλλάξετε το χάρτη: κάντε κλικ στα πράσινα κουμπιά με τον μαύρο σταυρό για να ζουμάρετε, στο πράσινο κουμπί με την παύλα για να αφαιρέσετε το ζουμ ή στα πράσινα βέλη για να αντιπαραβάλλετε χάρτες.


METAR-TAF: